Time,TemperatureF,DewpointF,PressureIn,WindDirection,WindDirectionDegrees,WindSpeedMPH,WindSpeedGustMPH,Humidity,HourlyPrecipIn,Conditions,Clouds,dailyrainin,SoftwareType,DateUTC
2013-07-16 00:04:00,74.8,74.2,30.12,SE,135,0.0,-999.0,98,-99.99,,,0.00,Acu-Link.com,2013-07-16 04:04:00,
2013-07-16 00:19:00,74.3,73.7,30.11,NW,315,0.0,-999.0,98,-99.99,,,0.00,Acu-Link.com,2013-07-16 04:19:00,
2013-07-16 00:34:00,74.1,73.5,30.12,NNW,337,0.0,-999.0,98,-99.99,,,0.00,Acu-Link.com,2013-07-16 04:34:00,
2013-07-16 00:49:00,73.8,73.2,30.12,WSW,247,0.0,-999.0,98,-99.99,,,0.00,Acu-Link.com,2013-07-16 04:49:00,
2013-07-16 01:05:00,73.6,73.0,30.12,SSE,157,0.0,-999.0,98,-99.99,,,0.00,Acu-Link.com,2013-07-16 05:05:00,
2013-07-16 01:21:00,73.2,72.6,30.11,South,180,0.0,-999.0,98,-99.99,,,0.00,Acu-Link.com,2013-07-16 05:21:00,
2013-07-16 01:37:00,72.9,72.3,30.11,South,180,0.0,-999.0,98,-99.99,,,0.00,Acu-Link.com,2013-07-16 05:37:00,
2013-07-16 01:52:00,73.0,72.4,30.11,NNE,22,0.0,-999.0,98,-99.99,,,0.00,Acu-Link.com,2013-07-16 05:52:00,
2013-07-16 02:08:00,72.9,72.3,30.12,SW,225,0.0,-999.0,98,-99.99,,,0.00,Acu-Link.com,2013-07-16 06:08:00,
2013-07-16 02:23:00,72.7,72.1,30.12,SW,225,0.0,-999.0,98,-99.99,,,0.00,Acu-Link.com,2013-07-16 06:23:00,
2013-07-16 02:39:00,72.3,71.7,30.12,NW,315,0.0,-999.0,98,-99.99,,,0.00,Acu-Link.com,2013-07-16 06:39:00,
2013-07-16 02:55:00,72.3,71.7,30.12,WSW,247,0.0,-999.0,98,-99.99,,,0.00,Acu-Link.com,2013-07-16 06:55:00,
2013-07-16 03:11:00,72.1,71.5,30.12,WSW,247,0.0,-999.0,98,-99.99,,,0.00,Acu-Link.com,2013-07-16 07:11:00,
2013-07-16 03:27:00,72.0,71.4,30.12,NNE,22,0.0,-999.0,98,-99.99,,,0.00,Acu-Link.com,2013-07-16 07:27:00,
2013-07-16 03:43:00,71.8,71.2,30.12,NNW,337,0.0,-999.0,98,-99.99,,,0.00,Acu-Link.com,2013-07-16 07:43:00,
2013-07-16 03:58:00,71.4,70.8,30.12,East,90,0.0,-999.0,98,-99.99,,,0.00,Acu-Link.com,2013-07-16 07:58:00,
2013-07-16 04:13:00,71.4,70.8,30.13,NNW,337,0.0,-999.0,98,-99.99,,,0.00,Acu-Link.com,2013-07-16 08:13:00,
2013-07-16 04:44:00,71.2,70.6,30.13,WNW,292,0.0,-999.0,98,-99.99,,,0.00,Acu-Link.com,2013-07-16 08:44:00,
2013-07-16 04:59:00,70.9,70.3,30.13,NW,315,0.0,-999.0,98,-99.99,,,0.00,Acu-Link.com,2013-07-16 08:59:00,
2013-07-16 05:14:00,70.5,69.9,30.13,NE,45,0.0,-999.0,98,-99.99,,,0.00,Acu-Link.com,2013-07-16 09:14:00,
2013-07-16 05:29:00,70.0,69.4,30.13,WSW,247,0.0,-999.0,98,-99.99,,,0.00,Acu-Link.com,2013-07-16 09:29:00,
2013-07-16 05:44:00,70.0,69.4,30.15,SSW,202,0.0,-999.0,98,-99.99,,,0.00,Acu-Link.com,2013-07-16 09:44:00,
2013-07-16 05:59:00,70.0,69.4,30.15,SW,225,0.0,-999.0,98,-99.99,,,0.00,Acu-Link.com,2013-07-16 09:59:00,
2013-07-16 06:14:00,70.3,69.7,30.16,West,270,0.0,-999.0,98,-99.99,,,0.00,Acu-Link.com,2013-07-16 10:14:00,
2013-07-16 06:29:00,71.1,70.5,30.16,West,270,0.0,-999.0,98,-99.99,,,0.00,Acu-Link.com,2013-07-16 10:29:00,
2013-07-16 06:45:00,71.4,70.8,30.16,WNW,292,0.0,-999.0,98,-99.99,,,0.00,Acu-Link.com,2013-07-16 10:45:00,
2013-07-16 07:00:00,71.8,71.2,30.17,West,270,2.2,-999.0,98,-99.99,,,0.00,Acu-Link.com,2013-07-16 11:00:00,
2013-07-16 07:15:00,72.9,72.3,30.18,SE,135,0.0,-999.0,98,-99.99,,,0.00,Acu-Link.com,2013-07-16 11:15:00,
2013-07-16 07:30:00,73.6,73.0,30.17,WSW,247,0.0,-999.0,98,-99.99,,,0.00,Acu-Link.com,2013-07-16 11:30:00,
2013-07-16 07:46:00,73.9,73.3,30.17,West,270,0.0,-999.0,98,-99.99,,,0.00,Acu-Link.com,2013-07-16 11:46:00,
2013-07-16 08:01:00,74.8,74.2,30.18,SW,225,0.0,-999.0,98,-99.99,,,0.00,Acu-Link.com,2013-07-16 12:01:00,
2013-07-16 08:16:00,76.3,75.7,30.17,SSE,157,2.2,-999.0,98,-99.99,,,0.00,Acu-Link.com,2013-07-16 12:16:00,
2013-07-16 08:31:00,79.9,78.7,30.18,ESE,112,0.0,-999.0,96,-99.99,,,0.00,Acu-Link.com,2013-07-16 12:31:00,
2013-07-16 08:46:00,83.8,79.1,30.17,North,0,1.7,-999.0,86,-99.99,,,0.00,Acu-Link.com,2013-07-16 12:46:00,
2013-07-16 09:01:00,81.1,78.2,30.18,SSE,157,1.1,-999.0,91,-99.99,,,0.00,Acu-Link.com,2013-07-16 13:01:00,
2013-07-16 09:16:00,81.7,77.8,30.16,SE,135,1.7,-999.0,88,-99.99,,,0.00,Acu-Link.com,2013-07-16 13:16:00,
2013-07-16 09:31:00,83.3,78.7,30.16,SSE,157,0.0,-999.0,86,-99.99,,,0.00,Acu-Link.com,2013-07-16 13:31:00,
2013-07-16 09:47:00,84.2,78.5,30.16,ESE,112,0.0,-999.0,83,-99.99,,,0.00,Acu-Link.com,2013-07-16 13:47:00,
2013-07-16 10:02:00,84.7,78.2,30.16,East,90,2.7,-999.0,81,-99.99,,,0.00,Acu-Link.com,2013-07-16 14:02:00,
2013-07-16 10:17:00,86.2,78.9,30.15,South,180,3.7,-999.0,79,-99.99,,,0.00,Acu-Link.com,2013-07-16 14:17:00,
2013-07-16 10:32:00,86.9,78.4,30.16,SSE,157,3.2,-999.0,76,-99.99,,,0.00,Acu-Link.com,2013-07-16 14:32:00,
2013-07-16 10:47:00,87.8,79.3,30.14,SSW,202,2.2,-999.0,76,-99.99,,,0.00,Acu-Link.com,2013-07-16 14:47:00,
2013-07-16 11:02:00,87.6,78.3,30.15,SE,135,3.7,-999.0,74,-99.99,,,0.00,Acu-Link.com,2013-07-16 15:02:00,
2013-07-16 11:17:00,88.5,78.7,30.14,SSE,157,5.3,-999.0,73,-99.99,,,0.00,Acu-Link.com,2013-07-16 15:17:00,
2013-07-16 11:32:00,89.2,79.0,30.14,SSE,157,6.8,-999.0,72,-99.99,,,0.00,Acu-Link.com,2013-07-16 15:32:00,
2013-07-16 11:47:00,90.7,78.7,30.14,SW,225,1.7,-999.0,68,-99.99,,,0.00,Acu-Link.com,2013-07-16 15:47:00,
2013-07-16 12:03:00,89.4,77.9,30.14,SW,225,3.7,-999.0,69,-99.99,,,0.00,Acu-Link.com,2013-07-16 16:03:00,
2013-07-16 12:19:00,90.0,77.5,30.12,SSW,202,4.2,-999.0,67,-99.99,,,0.00,Acu-Link.com,2013-07-16 16:19:00,
2013-07-16 12:36:00,91.8,77.8,30.11,SW,225,3.2,-999.0,64,-99.99,,,0.00,Acu-Link.com,2013-07-16 16:36:00,
2013-07-16 12:51:00,90.7,77.3,30.11,SSE,157,2.7,-999.0,65,-99.99,,,0.00,Acu-Link.com,2013-07-16 16:51:00,
2013-07-16 13:06:00,90.3,76.9,30.12,NE,45,1.1,-999.0,65,-99.99,,,0.00,Acu-Link.com,2013-07-16 17:06:00,
2013-07-16 13:24:00,93.6,76.6,30.11,NNE,22,3.2,-999.0,58,-99.99,,,0.00,Acu-Link.com,2013-07-16 17:24:00,
2013-07-16 13:39:00,92.1,75.2,30.10,West,270,2.2,-999.0,58,-99.99,,,0.00,Acu-Link.com,2013-07-16 17:39:00,
2013-07-16 13:55:00,93.7,75.6,30.11,NW,315,2.2,-999.0,56,-99.99,,,0.00,Acu-Link.com,2013-07-16 17:55:00,
2013-07-16 14:10:00,91.8,74.9,30.09,NNW,337,2.7,-999.0,58,-99.99,,,0.00,Acu-Link.com,2013-07-16 18:10:00,
2013-07-16 14:25:00,92.3,75.9,30.09,South,180,1.7,-999.0,59,-99.99,,,0.00,Acu-Link.com,2013-07-16 18:25:00,
2013-07-16 14:40:00,94.1,77.5,30.09,NE,45,3.2,-999.0,59,-99.99,,,0.00,Acu-Link.com,2013-07-16 18:40:00,
2013-07-16 14:57:00,92.3,75.9,30.09,West,270,2.7,-999.0,59,-99.99,,,0.00,Acu-Link.com,2013-07-16 18:57:00,
2013-07-16 15:12:00,95.0,76.8,30.08,North,0,3.2,-999.0,56,-99.99,,,0.00,Acu-Link.com,2013-07-16 19:12:00,
2013-07-16 15:27:00,93.6,75.5,30.08,SSE,157,2.2,-999.0,56,-99.99,,,0.00,Acu-Link.com,2013-07-16 19:27:00,
2013-07-16 15:42:00,95.2,75.3,30.07,WNW,292,4.7,-999.0,53,-99.99,,,0.00,Acu-Link.com,2013-07-16 19:42:00,
2013-07-16 15:58:00,95.7,76.3,30.07,WSW,247,4.2,-999.0,54,-99.99,,,0.00,Acu-Link.com,2013-07-16 19:58:00,
2013-07-16 16:13:00,96.1,76.7,30.06,NNE,22,3.2,-999.0,54,-99.99,,,0.00,Acu-Link.com,2013-07-16 20:13:00,
2013-07-16 16:29:00,94.8,75.5,30.06,SW,225,2.2,-999.0,54,-99.99,,,0.00,Acu-Link.com,2013-07-16 20:29:00,
2013-07-16 16:45:00,95.9,77.1,30.06,ESE,112,6.3,-999.0,55,-99.99,,,0.00,Acu-Link.com,2013-07-16 20:45:00,
2013-07-16 17:02:00,95.0,75.1,30.05,SW,225,3.2,-999.0,53,-99.99,,,0.00,Acu-Link.com,2013-07-16 21:02:00,
2013-07-16 17:17:00,95.0,75.1,30.05,West,270,2.2,-999.0,53,-99.99,,,0.00,Acu-Link.com,2013-07-16 21:17:00,
2013-07-16 17:32:00,95.5,75.6,30.05,NNE,22,3.2,-999.0,53,-99.99,,,0.00,Acu-Link.com,2013-07-16 21:32:00,
2013-07-16 17:49:00,99.3,76.7,30.05,WNW,292,3.7,-999.0,49,-99.99,,,0.00,Acu-Link.com,2013-07-16 21:49:00,
2013-07-16 18:05:00,99.9,77.9,30.05,NNW,337,2.7,-999.0,50,-99.99,,,0.00,Acu-Link.com,2013-07-16 22:05:00,
2013-07-16 18:20:00,97.3,77.3,30.05,NNW,337,2.2,-999.0,53,-99.99,,,0.00,Acu-Link.com,2013-07-16 22:20:00,
2013-07-16 18:35:00,97.7,78.7,30.04,North,0,2.2,-999.0,55,-99.99,,,0.00,Acu-Link.com,2013-07-16 22:35:00,
2013-07-16 18:51:00,96.6,77.2,30.05,NE,45,2.7,-999.0,54,-99.99,,,0.00,Acu-Link.com,2013-07-16 22:51:00,
2013-07-16 19:06:00,93.4,77.9,30.06,NE,45,1.7,-999.0,61,-99.99,,,0.00,Acu-Link.com,2013-07-16 23:06:00,
2013-07-16 19:21:00,91.2,77.3,30.06,West,270,0.0,-999.0,64,-99.99,,,0.00,Acu-Link.com,2013-07-16 23:21:00,
2013-07-16 19:36:00,89.6,78.0,30.06,South,180,0.0,-999.0,69,-99.99,,,0.00,Acu-Link.com,2013-07-16 23:36:00,
2013-07-16 19:51:00,88.9,78.7,30.07,West,270,1.1,-999.0,72,-99.99,,,0.00,Acu-Link.com,2013-07-16 23:51:00,
2013-07-16 20:06:00,88.0,78.6,30.06,WSW,247,0.0,-999.0,74,-99.99,,,0.00,Acu-Link.com,2013-07-17 00:06:00,
2013-07-16 20:21:00,86.0,77.9,30.07,West,270,0.0,-999.0,77,-99.99,,,0.00,Acu-Link.com,2013-07-17 00:21:00,
2013-07-16 20:37:00,84.2,77.0,30.06,ESE,112,0.0,-999.0,79,-99.99,,,0.00,Acu-Link.com,2013-07-17 00:37:00,
2013-07-16 20:52:00,82.8,76.7,30.07,NE,45,0.0,-999.0,82,-99.99,,,0.00,Acu-Link.com,2013-07-17 00:52:00,
2013-07-16 21:08:00,81.3,77.0,30.07,NE,45,0.0,-999.0,87,-99.99,,,0.00,Acu-Link.com,2013-07-17 01:08:00,
2013-07-16 21:23:00,80.4,76.8,30.08,NNW,337,0.0,-999.0,89,-99.99,,,0.00,Acu-Link.com,2013-07-17 01:23:00,
2013-07-16 21:39:00,79.7,76.5,30.09,ESE,112,0.0,-999.0,90,-99.99,,,0.00,Acu-Link.com,2013-07-17 01:39:00,
2013-07-16 21:54:00,79.0,77.1,30.09,NNE,22,0.0,-999.0,94,-99.99,,,0.00,Acu-Link.com,2013-07-17 01:54:00,
2013-07-16 22:10:00,78.4,77.5,30.09,NNE,22,0.0,-999.0,97,-99.99,,,0.00,Acu-Link.com,2013-07-17 02:10:00,
2013-07-16 22:25:00,77.5,76.6,30.09,NNE,22,0.0,-999.0,97,-99.99,,,0.00,Acu-Link.com,2013-07-17 02:25:00,
2013-07-16 22:40:00,76.6,75.7,30.10,West,270,0.0,-999.0,97,-99.99,,,0.00,Acu-Link.com,2013-07-17 02:40:00,
2013-07-16 22:55:00,76.1,75.5,30.09,WSW,247,0.0,-999.0,98,-99.99,,,0.00,Acu-Link.com,2013-07-17 02:55:00,
2013-07-16 23:10:00,75.7,75.1,30.10,West,270,0.0,-999.0,98,-99.99,,,0.00,Acu-Link.com,2013-07-17 03:10:00,
2013-07-16 23:25:00,75.2,74.6,30.11,SSE,157,0.0,-999.0,98,-99.99,,,0.00,Acu-Link.com,2013-07-17 03:25:00,
2013-07-16 23:41:00,74.8,74.2,30.11,ENE,67,0.0,-999.0,98,-99.99,,,0.00,Acu-Link.com,2013-07-17 03:41:00,
2013-07-16 23:56:00,74.5,73.9,30.11,NE,45,0.0,-999.0,98,-99.99,,,0.00,Acu-Link.com,2013-07-17 03:56:00,